createdAt,value
2023-05-13T00:00:18.237Z,19.52
2023-05-13T00:02:45.260Z,22.30
2023-05-13T00:05:12.289Z,18.65
2023-05-13T00:07:39.179Z,21.20
2023-05-13T00:10:06.515Z,18.67
2023-05-13T00:12:33.464Z,27.55
2023-05-13T00:15:00.417Z,18.85
2023-05-13T00:17:27.342Z,20.80
2023-05-13T00:19:54.214Z,19.23
2023-05-13T00:22:20.998Z,17.90
2023-05-13T00:24:47.966Z,18.27
2023-05-13T00:27:14.880Z,19.83
2023-05-13T00:29:41.807Z,21.48
2023-05-13T00:32:08.705Z,22.02
2023-05-13T00:34:35.816Z,18.90
2023-05-13T00:37:02.776Z,19.75
2023-05-13T00:39:29.962Z,20.30
2023-05-13T00:41:57.089Z,19.38
2023-05-13T00:44:24.089Z,18.38
2023-05-13T00:46:51.330Z,21.35
2023-05-13T00:49:19.165Z,21.73
2023-05-13T00:51:46.126Z,20.90
2023-05-13T00:54:12.986Z,21.17
2023-05-13T00:56:40.124Z,23.48
2023-05-13T00:59:07.120Z,24.45
2023-05-13T01:01:52.402Z,24.73
2023-05-13T01:04:42.129Z,20.10
2023-05-13T01:07:46.656Z,21.35
2023-05-13T01:10:45.337Z,19.10
2023-05-13T01:13:19.831Z,21.85
2023-05-13T01:15:56.650Z,19.83
2023-05-13T01:18:33.587Z,20.58
2023-05-13T01:21:02.603Z,20.13
2023-05-13T01:23:29.516Z,21.83
2023-05-13T01:25:56.708Z,20.90
2023-05-13T01:28:24.930Z,19.45
2023-05-13T01:30:56.293Z,21.60
2023-05-13T01:33:24.319Z,23.83
2023-05-13T01:35:52.536Z,21.75
2023-05-13T01:38:21.840Z,21.23
2023-05-13T01:40:53.481Z,22.42
2023-05-13T01:43:20.567Z,21.42
2023-05-13T01:45:47.699Z,19.67
2023-05-13T01:48:15.472Z,23.35
2023-05-13T01:50:46.666Z,18.08
2023-05-13T01:53:13.817Z,21.52
2023-05-13T01:55:41.337Z,18.55
2023-05-13T01:58:09.304Z,19.83
2023-05-13T02:00:36.258Z,20.60
2023-05-13T02:03:03.403Z,17.50
2023-05-13T02:05:33.116Z,20.65
2023-05-13T02:08:04.095Z,16.90
2023-05-13T02:10:31.365Z,16.65
2023-05-13T02:13:01.531Z,16.70
2023-05-13T02:15:28.977Z,14.93
2023-05-13T02:17:56.155Z,15.63
2023-05-13T02:20:23.478Z,14.95
2023-05-13T02:22:50.925Z,16.02
2023-05-13T02:25:17.858Z,16.40
2023-05-13T02:27:45.046Z,14.80
2023-05-13T02:30:13.021Z,15.73
2023-05-13T02:32:42.849Z,17.65
2023-05-13T02:35:10.975Z,14.07
2023-05-13T02:37:37.876Z,14.52
2023-05-13T02:40:05.577Z,14.10
2023-05-13T02:42:32.627Z,14.32
2023-05-13T02:45:00.074Z,13.73
2023-05-13T02:47:31.937Z,13.07
2023-05-13T02:50:06.335Z,14.18
2023-05-13T02:52:35.931Z,16.60
2023-05-13T02:55:03.924Z,13.45
2023-05-13T02:57:31.321Z,15.15
2023-05-13T02:59:58.778Z,15.20
2023-05-13T03:02:26.051Z,12.70
2023-05-13T03:04:54.955Z,14.60
2023-05-13T03:07:22.233Z,13.90
2023-05-13T03:09:50.727Z,12.40
2023-05-13T03:12:17.975Z,16.08
2023-05-13T03:14:44.828Z,13.40
2023-05-13T03:17:12.095Z,15.82
2023-05-13T03:19:40.048Z,11.35
2023-05-13T03:22:07.479Z,11.55
2023-05-13T03:24:34.720Z,16.75
2023-05-13T03:27:02.655Z,14.93
2023-05-13T03:29:30.998Z,13.63
2023-05-13T03:31:59.810Z,15.27
2023-05-13T03:34:26.931Z,12.30
2023-05-13T03:36:54.222Z,14.15
2023-05-13T03:39:21.372Z,13.35
2023-05-13T03:41:48.380Z,13.55
2023-05-13T03:44:15.604Z,12.32
2023-05-13T03:46:43.546Z,14.30
2023-05-13T03:49:10.955Z,12.75
2023-05-13T03:51:38.321Z,12.10
2023-05-13T03:54:06.215Z,13.23
2023-05-13T03:56:33.128Z,13.38
2023-05-13T03:59:01.733Z,11.93
2023-05-13T04:02:35.360Z,10.73
2023-05-13T04:05:06.170Z,15.63
2023-05-13T04:07:33.124Z,13.38
2023-05-13T04:09:59.928Z,11.57
2023-05-13T04:12:27.167Z,11.05
2023-05-13T04:14:53.943Z,10.65
2023-05-13T04:17:20.938Z,12.98
2023-05-13T04:19:47.825Z,10.57
2023-05-13T04:22:14.640Z,12.40
2023-05-13T04:24:41.454Z,13.18
2023-05-13T04:27:08.592Z,18.88
2023-05-13T04:29:35.609Z,10.60
2023-05-13T04:32:02.750Z,11.50
2023-05-13T04:34:29.733Z,11.93
2023-05-13T04:36:56.653Z,12.50
2023-05-13T04:39:25.418Z,11.00
2023-05-13T04:41:52.280Z,10.63
2023-05-13T04:44:19.815Z,14.55
2023-05-13T04:46:47.097Z,12.90
2023-05-13T04:49:14.146Z,15.18
2023-05-13T04:51:41.708Z,10.63
2023-05-13T04:54:09.222Z,11.60
2023-05-13T04:56:36.159Z,10.18
2023-05-13T04:59:03.063Z,11.18
2023-05-13T05:01:30.358Z,10.13
2023-05-13T05:03:58.995Z,10.90
2023-05-13T05:06:25.836Z,13.00
2023-05-13T05:08:52.790Z,12.30
2023-05-13T05:11:19.954Z,11.02
2023-05-13T05:13:46.896Z,11.55
2023-05-13T05:16:17.368Z,11.48
2023-05-13T05:18:44.976Z,11.55
2023-05-13T05:21:12.383Z,11.07
2023-05-13T05:23:39.881Z,11.23
2023-05-13T05:26:11.865Z,13.13
2023-05-13T05:28:43.303Z,11.13
2023-05-13T05:31:10.684Z,11.13
2023-05-13T05:33:39.181Z,9.68
2023-05-13T05:36:07.145Z,10.00
2023-05-13T05:38:35.127Z,9.80
2023-05-13T05:41:05.235Z,9.95
2023-05-13T05:43:32.079Z,11.40
2023-05-13T05:45:58.905Z,12.85
2023-05-13T05:48:26.010Z,13.05
2023-05-13T05:50:53.151Z,9.55
2023-05-13T05:53:26.868Z,11.52
2023-05-13T05:55:54.260Z,10.30
2023-05-13T05:58:21.622Z,10.93
2023-05-13T06:00:48.867Z,9.15
2023-05-13T06:03:17.017Z,9.32
2023-05-13T06:05:44.099Z,9.45
2023-05-13T06:08:10.937Z,8.75
2023-05-13T06:10:38.668Z,8.98
2023-05-13T06:13:05.650Z,9.25
2023-05-13T06:15:38.571Z,8.52
2023-05-13T06:18:06.176Z,8.98
2023-05-13T06:20:35.129Z,10.00
2023-05-13T06:23:02.136Z,7.85
2023-05-13T06:25:29.026Z,9.60
2023-05-13T06:27:56.342Z,8.45
2023-05-13T06:30:27.969Z,9.32
2023-05-13T06:33:01.748Z,10.82
2023-05-13T06:35:30.396Z,12.15
2023-05-13T06:37:57.610Z,12.30
2023-05-13T06:40:24.856Z,7.43
2023-05-13T06:42:52.155Z,8.57
2023-05-13T06:45:28.703Z,10.63
2023-05-13T06:47:55.607Z,8.45
2023-05-13T06:50:22.801Z,8.73
2023-05-13T06:52:50.957Z,8.68
2023-05-13T06:55:19.084Z,9.15
2023-05-13T06:57:47.305Z,8.45
2023-05-13T07:00:15.837Z,9.73
2023-05-13T07:02:43.372Z,9.88
2023-05-13T07:05:11.648Z,9.20
2023-05-13T07:07:38.760Z,11.27
2023-05-13T07:10:05.923Z,11.07
2023-05-13T07:12:33.113Z,10.48
2023-05-13T07:15:02.615Z,10.88
2023-05-13T07:17:32.617Z,14.20
2023-05-13T07:19:59.590Z,10.25
2023-05-13T07:22:26.452Z,12.70
2023-05-13T07:24:53.852Z,10.18
2023-05-13T07:27:21.958Z,10.27
2023-05-13T07:29:48.761Z,11.32
2023-05-13T07:32:15.611Z,10.55
2023-05-13T07:34:42.583Z,9.60
2023-05-13T07:37:09.435Z,13.73
2023-05-13T07:39:36.291Z,12.27
2023-05-13T07:42:04.285Z,11.55
2023-05-13T07:44:32.256Z,12.20
2023-05-13T07:46:59.168Z,12.60
2023-05-13T07:49:26.047Z,12.63
2023-05-13T07:51:52.894Z,11.80
2023-05-13T07:54:20.038Z,8.77
2023-05-13T07:56:48.061Z,9.93
2023-05-13T07:59:14.985Z,10.63
2023-05-13T08:01:42.581Z,12.63
2023-05-13T08:04:09.640Z,9.82
2023-05-13T08:06:37.191Z,9.15
2023-05-13T08:09:06.759Z,8.65
2023-05-13T08:11:33.608Z,9.43
2023-05-13T08:14:00.513Z,7.78
2023-05-13T08:16:27.479Z,9.43
2023-05-13T08:18:54.984Z,8.55
2023-05-13T08:21:21.953Z,6.75
2023-05-13T08:23:52.034Z,7.00
2023-05-13T08:26:18.941Z,8.95
2023-05-13T08:28:46.201Z,8.63
2023-05-13T08:31:13.957Z,10.73
2023-05-13T08:33:42.766Z,11.23
2023-05-13T08:36:10.438Z,8.65
2023-05-13T08:38:37.397Z,8.02
2023-05-13T08:41:08.036Z,8.10
2023-05-13T08:43:35.206Z,5.90
2023-05-13T08:46:04.714Z,7.68
2023-05-13T08:48:33.809Z,9.52
2023-05-13T08:51:04.788Z,6.75
2023-05-13T08:53:31.876Z,6.20
2023-05-13T08:56:01.004Z,8.00
2023-05-13T08:58:28.413Z,8.10
2023-05-13T09:00:56.304Z,6.60
2023-05-13T09:03:23.191Z,6.68
2023-05-13T09:05:50.086Z,6.43
2023-05-13T09:08:17.232Z,7.35
2023-05-13T09:10:44.404Z,4.78
2023-05-13T09:13:13.433Z,5.38
2023-05-13T09:15:43.381Z,5.85
2023-05-13T09:18:11.213Z,5.32
2023-05-13T09:20:38.622Z,7.03
2023-05-13T09:23:08.258Z,6.13
2023-05-13T09:25:36.612Z,8.45
2023-05-13T09:28:05.757Z,9.38
2023-05-13T09:30:40.217Z,5.75
2023-05-13T09:33:12.903Z,5.63
2023-05-13T09:36:06.882Z,7.75
2023-05-13T09:38:39.144Z,6.68
2023-05-13T09:41:06.402Z,8.80
2023-05-13T09:43:34.125Z,6.57
2023-05-13T09:46:05.484Z,7.03
2023-05-13T09:48:35.369Z,6.50
2023-05-13T09:51:06.025Z,6.50
2023-05-13T09:53:33.166Z,8.85
2023-05-13T09:56:01.778Z,7.32
2023-05-13T09:58:30.851Z,7.07
2023-05-13T10:00:58.617Z,7.05
2023-05-13T10:03:25.761Z,7.97
2023-05-13T10:05:53.749Z,7.20
2023-05-13T10:08:21.907Z,12.27
2023-05-13T10:10:50.612Z,7.00
2023-05-13T10:13:22.384Z,8.45
2023-05-13T10:15:51.278Z,7.70
2023-05-13T10:18:19.681Z,6.10
2023-05-13T10:20:52.932Z,8.00
2023-05-13T10:23:21.356Z,11.18
2023-05-13T10:25:53.600Z,7.05
2023-05-13T10:28:21.011Z,9.52
2023-05-13T10:30:55.340Z,7.75
2023-05-13T10:33:22.746Z,8.05
2023-05-13T10:36:04.351Z,6.63
2023-05-13T10:38:42.556Z,7.00
2023-05-13T10:41:46.709Z,7.85
2023-05-13T10:44:13.533Z,8.15
2023-05-13T10:46:42.743Z,7.95
2023-05-13T10:49:18.374Z,7.43
2023-05-13T10:51:49.448Z,8.77
2023-05-13T10:54:20.884Z,10.52
2023-05-13T10:56:57.711Z,8.63
2023-05-13T10:59:25.365Z,7.93
2023-05-13T11:01:52.174Z,7.70
2023-05-13T11:04:21.661Z,7.10
2023-05-13T11:06:50.822Z,9.73
2023-05-13T11:09:23.603Z,9.30
2023-05-13T11:12:00.535Z,7.90
2023-05-13T11:14:30.316Z,10.07
2023-05-13T11:16:57.120Z,10.00
2023-05-13T11:19:27.651Z,9.35
2023-05-13T11:21:57.443Z,8.95
2023-05-13T11:24:25.088Z,8.82
2023-05-13T11:26:59.298Z,10.55
2023-05-13T11:29:40.201Z,10.00
2023-05-13T11:32:08.022Z,12.30
2023-05-13T11:34:35.344Z,10.27
2023-05-13T11:37:05.345Z,11.30
2023-05-13T11:39:33.150Z,12.05
2023-05-13T11:42:02.375Z,13.68
2023-05-13T11:44:29.347Z,12.40
2023-05-13T11:46:56.314Z,12.48
2023-05-13T11:49:33.613Z,13.30
2023-05-13T11:52:06.007Z,13.32
2023-05-13T11:54:33.200Z,14.83
2023-05-13T11:57:00.181Z,14.35
2023-05-13T11:59:31.346Z,15.05
2023-05-13T12:02:05.665Z,12.80
2023-05-13T12:04:32.528Z,12.63
2023-05-13T12:06:59.858Z,11.90
2023-05-13T12:09:26.785Z,16.02
2023-05-13T12:11:54.114Z,11.57
2023-05-13T12:14:22.573Z,12.65
2023-05-13T12:16:49.879Z,11.70
2023-05-13T12:19:17.242Z,10.88
2023-05-13T12:21:44.663Z,10.43
2023-05-13T12:24:22.185Z,10.65
2023-05-13T12:26:49.817Z,10.15
2023-05-13T12:29:16.705Z,10.60
2023-05-13T12:32:04.301Z,12.00
2023-05-13T12:34:34.093Z,11.15
2023-05-13T12:37:12.492Z,9.55
2023-05-13T12:39:41.659Z,10.02
2023-05-13T12:42:18.264Z,13.88
2023-05-13T12:44:46.568Z,9.90
2023-05-13T12:47:15.868Z,11.65
2023-05-13T12:49:53.195Z,10.32
2023-05-13T12:52:21.483Z,11.80
2023-05-13T12:54:48.711Z,11.10
2023-05-13T12:57:18.499Z,9.77
2023-05-13T12:59:45.990Z,13.68
2023-05-13T13:02:13.630Z,9.55
2023-05-13T13:04:40.832Z,12.07
2023-05-13T13:07:12.752Z,9.57
2023-05-13T13:09:42.547Z,12.07
2023-05-13T13:12:09.634Z,10.93
2023-05-13T13:14:36.703Z,11.05
2023-05-13T13:17:04.798Z,15.80
2023-05-13T13:19:31.752Z,10.70
2023-05-13T13:22:00.136Z,11.68
2023-05-13T13:24:27.113Z,10.32
2023-05-13T13:26:54.735Z,14.07
2023-05-13T13:29:23.134Z,10.85
2023-05-13T13:31:52.079Z,11.75
2023-05-13T13:34:19.125Z,10.65
2023-05-13T13:36:46.104Z,9.18
2023-05-13T13:39:13.026Z,12.45
2023-05-13T13:41:40.575Z,10.05
2023-05-13T13:44:08.229Z,11.48
2023-05-13T13:46:35.138Z,9.68
2023-05-13T13:49:03.852Z,9.63
2023-05-13T13:51:40.142Z,10.77
2023-05-13T13:54:08.346Z,8.98
2023-05-13T13:56:39.525Z,9.82
2023-05-13T13:59:06.592Z,8.80
2023-05-13T14:01:33.483Z,11.32
2023-05-13T14:04:23.832Z,8.18
2023-05-13T14:06:52.365Z,11.00
2023-05-13T14:09:19.947Z,10.30
2023-05-13T14:11:47.905Z,9.65
2023-05-13T14:14:15.301Z,10.82
2023-05-13T14:16:42.234Z,10.20
2023-05-13T14:19:10.760Z,12.70
2023-05-13T14:21:37.749Z,10.57
2023-05-13T14:24:08.698Z,13.82
2023-05-13T14:26:35.722Z,12.30
2023-05-13T14:29:02.773Z,11.15
2023-05-13T14:31:30.169Z,11.43
2023-05-13T14:33:58.042Z,10.45
2023-05-13T14:36:27.133Z,12.27
2023-05-13T14:38:54.697Z,12.43
2023-05-13T14:41:23.258Z,11.63
2023-05-13T14:43:50.183Z,11.90
2023-05-13T14:46:17.543Z,12.57
2023-05-13T14:48:44.428Z,13.15
2023-05-13T14:51:12.493Z,11.32
2023-05-13T14:53:43.379Z,12.05
2023-05-13T14:56:10.654Z,12.88
2023-05-13T14:58:37.741Z,12.98
2023-05-13T15:01:04.732Z,11.98
2023-05-13T15:03:31.775Z,10.15
2023-05-13T15:05:58.757Z,10.65
2023-05-13T15:08:25.812Z,10.73
2023-05-13T15:10:55.195Z,11.68
2023-05-13T15:13:28.113Z,11.88
2023-05-13T15:15:56.174Z,12.13
2023-05-13T15:18:23.709Z,13.10
2023-05-13T15:20:50.595Z,13.32
2023-05-13T15:23:20.914Z,13.90
2023-05-13T15:25:48.536Z,16.23
2023-05-13T15:28:15.738Z,14.07
2023-05-13T15:30:43.603Z,12.73
2023-05-13T15:33:10.748Z,12.25
2023-05-13T15:35:37.640Z,13.40
2023-05-13T15:38:07.049Z,13.50
2023-05-13T15:40:35.284Z,13.55
2023-05-13T15:43:02.114Z,13.38
2023-05-13T15:45:30.806Z,12.13
2023-05-13T15:47:58.333Z,13.32
2023-05-13T15:50:26.275Z,13.13
2023-05-13T15:52:54.802Z,11.63
2023-05-13T15:55:22.785Z,11.35
2023-05-13T15:57:50.504Z,16.88
2023-05-13T16:00:18.915Z,12.57
2023-05-13T16:02:46.009Z,12.63
2023-05-13T16:05:15.398Z,12.55
2023-05-13T16:07:42.789Z,17.70
2023-05-13T16:10:11.369Z,13.15
2023-05-13T16:12:39.307Z,18.58
2023-05-13T16:15:07.001Z,13.15
2023-05-13T16:17:36.190Z,13.95
2023-05-13T16:20:03.517Z,15.05
2023-05-13T16:22:38.122Z,13.70
2023-05-13T16:25:10.896Z,19.20
2023-05-13T16:27:41.485Z,12.98
2023-05-13T16:30:10.577Z,13.48
2023-05-13T16:32:37.857Z,14.88
2023-05-13T16:35:05.086Z,15.10
2023-05-13T16:37:35.549Z,13.57
2023-05-13T16:40:06.925Z,15.77
2023-05-13T16:42:33.892Z,15.65
2023-05-13T16:45:01.050Z,14.98
2023-05-13T16:47:29.278Z,18.70
2023-05-13T16:49:56.577Z,13.80
2023-05-13T16:52:24.501Z,14.32
2023-05-13T16:54:52.265Z,17.52
2023-05-13T16:57:22.622Z,16.52
2023-05-13T16:59:49.675Z,22.30
2023-05-13T17:02:16.670Z,19.38
2023-05-13T17:04:43.793Z,18.42
2023-05-13T17:07:13.733Z,19.67
2023-05-13T17:09:40.842Z,20.38
2023-05-13T17:12:08.083Z,21.02
2023-05-13T17:14:35.205Z,22.63
2023-05-13T17:17:03.362Z,21.63
2023-05-13T17:19:30.799Z,21.50
2023-05-13T17:21:57.682Z,19.95
2023-05-13T17:24:24.786Z,23.23
2023-05-13T17:26:51.700Z,24.45
2023-05-13T17:29:18.740Z,20.20
2023-05-13T17:31:48.428Z,22.52
2023-05-13T17:34:15.469Z,21.55
2023-05-13T17:36:43.130Z,22.63
2023-05-13T17:39:10.242Z,21.08
2023-05-13T17:41:38.776Z,23.02
2023-05-13T17:44:06.150Z,21.60
2023-05-13T17:46:33.888Z,20.92
2023-05-13T17:49:02.796Z,22.63
2023-05-13T17:51:30.159Z,27.95
2023-05-13T17:53:59.396Z,23.45
2023-05-13T17:56:26.392Z,21.85
2023-05-13T17:58:53.376Z,24.70
2023-05-13T18:01:21.970Z,24.17
2023-05-13T18:03:49.244Z,22.48
2023-05-13T18:06:16.403Z,23.48
2023-05-13T18:08:45.839Z,25.65
2023-05-13T18:11:13.795Z,25.10
2023-05-13T18:13:40.839Z,21.52
2023-05-13T18:16:09.271Z,25.35
2023-05-13T18:18:37.784Z,25.45
2023-05-13T18:21:10.944Z,26.67
2023-05-13T18:23:40.998Z,24.90
2023-05-13T18:26:09.008Z,25.77
2023-05-13T18:28:37.194Z,26.17
2023-05-13T18:31:04.687Z,33.80
2023-05-13T18:33:35.556Z,23.58
2023-05-13T18:36:04.441Z,27.02
2023-05-13T18:38:32.377Z,25.95
2023-05-13T18:41:03.402Z,26.70
2023-05-13T18:43:35.988Z,28.00
2023-05-13T18:46:03.263Z,27.20
2023-05-13T18:48:31.135Z,26.75
2023-05-13T18:50:58.653Z,28.13
2023-05-13T18:53:25.621Z,25.02
2023-05-13T18:55:54.648Z,28.88
2023-05-13T18:58:21.636Z,24.92
2023-05-13T19:00:49.810Z,23.95
2023-05-13T19:03:18.082Z,23.67
2023-05-13T19:05:46.236Z,29.67
2023-05-13T19:08:13.181Z,23.75
2023-05-13T19:10:41.123Z,23.77
2023-05-13T19:13:08.122Z,25.95
2023-05-13T19:15:35.080Z,24.02
2023-05-13T19:18:02.403Z,25.02
2023-05-13T19:20:30.168Z,27.60
2023-05-13T19:22:57.423Z,25.25
2023-05-13T19:25:24.522Z,27.92
2023-05-13T19:27:51.378Z,24.25
2023-05-13T19:30:18.400Z,24.02
2023-05-13T19:32:45.360Z,29.35
2023-05-13T19:35:12.122Z,26.02
2023-05-13T19:37:39.064Z,26.73
2023-05-13T19:40:07.583Z,28.23
2023-05-13T19:42:37.066Z,23.60
2023-05-13T19:45:07.113Z,23.80
2023-05-13T19:47:37.353Z,29.05
2023-05-13T19:50:04.884Z,24.55
2023-05-13T19:52:33.324Z,27.08
2023-05-13T19:55:00.350Z,27.58
2023-05-13T19:57:29.838Z,24.10
2023-05-13T19:59:57.067Z,26.75
2023-05-13T20:02:23.963Z,25.35
2023-05-13T20:04:50.851Z,24.38
2023-05-13T20:07:18.128Z,24.00
2023-05-13T20:09:44.976Z,22.35
2023-05-13T20:12:11.766Z,24.40
2023-05-13T20:14:46.545Z,25.40
2023-05-13T20:17:17.696Z,24.42
2023-05-13T20:19:49.199Z,25.13
2023-05-13T20:22:17.493Z,24.83
2023-05-13T20:24:48.893Z,23.00
2023-05-13T20:27:17.318Z,22.10
2023-05-13T20:29:49.969Z,23.83
2023-05-13T20:32:24.621Z,23.73
2023-05-13T20:34:52.828Z,27.05
2023-05-13T20:37:23.490Z,25.77
2023-05-13T20:39:51.253Z,24.65
2023-05-13T20:42:18.239Z,25.73
2023-05-13T20:44:46.422Z,21.88
2023-05-13T20:47:13.679Z,23.88
2023-05-13T20:49:44.084Z,28.00
2023-05-13T20:52:11.510Z,30.25
2023-05-13T20:54:39.163Z,24.27
2023-05-13T20:57:06.289Z,29.15
2023-05-13T20:59:33.627Z,26.83
2023-05-13T21:02:00.561Z,26.65
2023-05-13T21:04:27.507Z,23.75
2023-05-13T21:06:54.365Z,25.13
2023-05-13T21:09:21.215Z,31.10
2023-05-13T21:11:48.090Z,27.52
2023-05-13T21:14:15.093Z,26.10
2023-05-13T21:16:42.618Z,25.17
2023-05-13T21:19:23.435Z,27.27
2023-05-13T21:21:51.055Z,30.17
2023-05-13T21:24:24.432Z,26.40
2023-05-13T21:26:51.243Z,25.92
2023-05-13T21:29:18.961Z,24.58
2023-05-13T21:31:46.973Z,26.23
2023-05-13T21:34:13.855Z,25.13
2023-05-13T21:36:40.810Z,25.98
2023-05-13T21:39:10.309Z,24.95
2023-05-13T21:41:37.227Z,27.98
2023-05-13T21:44:04.113Z,26.35
2023-05-13T21:46:31.113Z,25.40
2023-05-13T21:48:59.794Z,28.75
2023-05-13T21:51:26.751Z,25.48
2023-05-13T21:53:53.727Z,23.63
2023-05-13T21:56:21.643Z,26.67
2023-05-13T21:58:49.793Z,22.85
2023-05-13T22:01:16.748Z,24.02
2023-05-13T22:03:43.981Z,28.33
2023-05-13T22:06:10.947Z,26.70
2023-05-13T22:08:37.803Z,23.13
2023-05-13T22:11:05.021Z,23.98
2023-05-13T22:13:31.864Z,27.20
2023-05-13T22:15:58.662Z,23.20
2023-05-13T22:18:25.799Z,23.17
2023-05-13T22:20:52.708Z,24.55
2023-05-13T22:23:19.493Z,22.70
2023-05-13T22:25:46.309Z,26.95
2023-05-13T22:28:13.161Z,24.83
2023-05-13T22:30:40.118Z,23.63
2023-05-13T22:33:07.153Z,22.00
2023-05-13T22:35:36.473Z,23.38
2023-05-13T22:38:04.399Z,22.02
2023-05-13T22:40:31.467Z,22.73
2023-05-13T22:42:58.315Z,24.42
2023-05-13T22:45:25.317Z,23.20
2023-05-13T22:47:52.203Z,23.40
2023-05-13T22:50:19.197Z,24.30
2023-05-13T22:52:46.077Z,22.55
2023-05-13T22:55:12.937Z,23.08
2023-05-13T22:57:39.950Z,22.00
2023-05-13T23:00:07.837Z,19.27
2023-05-13T23:02:34.784Z,20.55
2023-05-13T23:05:02.034Z,23.45
2023-05-13T23:07:30.806Z,20.90
2023-05-13T23:09:57.728Z,19.25
2023-05-13T23:12:24.540Z,19.17
2023-05-13T23:14:51.452Z,20.52
2023-05-13T23:17:18.331Z,16.50
2023-05-13T23:19:45.111Z,22.13
2023-05-13T23:22:11.981Z,21.50
2023-05-13T23:24:38.814Z,19.55
2023-05-13T23:27:05.870Z,25.83
2023-05-13T23:29:32.694Z,22.17
2023-05-13T23:31:59.503Z,23.30
2023-05-13T23:34:26.523Z,20.90
2023-05-13T23:36:55.503Z,19.63
2023-05-13T23:39:22.309Z,17.95
2023-05-13T23:41:49.411Z,17.27
2023-05-13T23:44:16.286Z,16.27
2023-05-13T23:46:43.541Z,17.65
2023-05-13T23:49:10.625Z,19.40
2023-05-13T23:51:38.374Z,15.63
2023-05-13T23:54:05.352Z,16.58
2023-05-13T23:56:32.262Z,16.95
2023-05-13T23:58:59.165Z,16.25
